JST523 YSSY-YMML
Flight info
| Callsign | JST523 |
|---|---|
| Flight time | 1h 4m |
| Altitude | 34000 |
| Route | KEVIN DCT WOL H65 LEECE Q29 BOOIN |
| Aircraft | A321/M-SDE3FGHIRWY/LB1 |
Departure
| Time | 2026-04-25 01:51 |
|---|---|
| Airport | Sydney Kingsford Smith International Airport (YSSY) |
Arrival
| Time | 2026-04-25 02:56 |
|---|---|
| Airport | Melbourne Airport (YMML) |
| Time | Latitude | Longitude | Altitude | Speed | Heading |
|---|---|---|---|---|---|
| 2026-04-25 01:16 | -33.93094 | 151.17673 | 30 ft | 0 kts | 188° |
| 2026-04-25 01:34 | -33.93092 | 151.17674 | 30 ft | 1 kts | 188° |
| 2026-04-25 01:35 | -33.93074 | 151.17677 | 30 ft | 3 kts | 191° |
| 2026-04-25 01:35 | -33.93055 | 151.17682 | 30 ft | 3 kts | 200° |
| 2026-04-25 01:35 | -33.93038 | 151.17692 | 30 ft | 3 kts | 231° |
| 2026-04-25 01:35 | -33.93032 | 151.17702 | 30 ft | 2 kts | 290° |
| 2026-04-25 01:36 | -33.93033 | 151.17706 | 30 ft | 0 kts | 298° |
| 2026-04-25 01:39 | -33.93032 | 151.17705 | 30 ft | 0 kts | 298° |
| 2026-04-25 01:39 | -33.93029 | 151.17697 | 30 ft | 2 kts | 298° |
| 2026-04-25 01:39 | -33.93018 | 151.17665 | 30 ft | 6 kts | 285° |
| 2026-04-25 01:39 | -33.93008 | 151.17605 | 30 ft | 7 kts | 281° |
| 2026-04-25 01:40 | -33.93016 | 151.17562 | 30 ft | 5 kts | 231° |
| 2026-04-25 01:40 | -33.93050 | 151.17533 | 30 ft | 7 kts | 209° |
| 2026-04-25 01:40 | -33.93099 | 151.17522 | 30 ft | 8 kts | 173° |
| 2026-04-25 01:40 | -33.93159 | 151.17534 | 30 ft | 10 kts | 167° |
| 2026-04-25 01:41 | -33.93228 | 151.17553 | 30 ft | 11 kts | 167° |
| 2026-04-25 01:41 | -33.93308 | 151.17573 | 30 ft | 12 kts | 169° |
| 2026-04-25 01:41 | -33.93396 | 151.17592 | 30 ft | 14 kts | 174° |
| 2026-04-25 01:41 | -33.93497 | 151.17591 | 30 ft | 15 kts | 175° |
| 2026-04-25 01:42 | -33.93601 | 151.17615 | 30 ft | 16 kts | 162° |
| 2026-04-25 01:42 | -33.93700 | 151.17671 | 30 ft | 14 kts | 157° |
| 2026-04-25 01:42 | -33.93800 | 151.17707 | 30 ft | 16 kts | 163° |
| 2026-04-25 01:42 | -33.93891 | 151.17774 | 30 ft | 15 kts | 159° |
| 2026-04-25 01:43 | -33.93996 | 151.17806 | 29 ft | 17 kts | 168° |
| 2026-04-25 01:43 | -33.94113 | 151.17836 | 29 ft | 17 kts | 168° |
| 2026-04-25 01:43 | -33.94233 | 151.17866 | 30 ft | 18 kts | 168° |
| 2026-04-25 01:43 | -33.94358 | 151.17898 | 30 ft | 19 kts | 168° |
| 2026-04-25 01:44 | -33.94489 | 151.17889 | 30 ft | 19 kts | 194° |
| 2026-04-25 01:44 | -33.94624 | 151.17908 | 30 ft | 20 kts | 168° |
| 2026-04-25 01:44 | -33.94763 | 151.17943 | 30 ft | 21 kts | 168° |
| 2026-04-25 01:44 | -33.94908 | 151.17981 | 30 ft | 22 kts | 168° |
| 2026-04-25 01:45 | -33.95039 | 151.18015 | 30 ft | 16 kts | 168° |
| 2026-04-25 01:45 | -33.95096 | 151.18111 | 30 ft | 16 kts | 84° |
| 2026-04-25 01:45 | -33.95081 | 151.18209 | 30 ft | 10 kts | 78° |
| 2026-04-25 01:45 | -33.95065 | 151.18300 | 30 ft | 12 kts | 79° |
| 2026-04-25 01:46 | -33.95048 | 151.18403 | 30 ft | 13 kts | 78° |
| 2026-04-25 01:46 | -33.95075 | 151.18506 | 30 ft | 16 kts | 137° |
| 2026-04-25 01:46 | -33.95164 | 151.18598 | 30 ft | 17 kts | 138° |
| 2026-04-25 01:46 | -33.95263 | 151.18691 | 30 ft | 19 kts | 152° |
| 2026-04-25 01:47 | -33.95390 | 151.18737 | 30 ft | 20 kts | 167° |
| 2026-04-25 01:47 | -33.95527 | 151.18773 | 30 ft | 21 kts | 169° |
| 2026-04-25 01:47 | -33.95670 | 151.18808 | 30 ft | 21 kts | 167° |
| 2026-04-25 01:47 | -33.95770 | 151.18836 | 30 ft | 22 kts | 167° |
| 2026-04-25 01:48 | -33.95974 | 151.18889 | 30 ft | 24 kts | 168° |
| 2026-04-25 01:48 | -33.96138 | 151.18931 | 30 ft | 25 kts | 168° |
| 2026-04-25 01:48 | -33.96252 | 151.18960 | 30 ft | 25 kts | 167° |
| 2026-04-25 01:48 | -33.96426 | 151.19006 | 30 ft | 26 kts | 168° |
| 2026-04-25 01:49 | -33.96604 | 151.19052 | 30 ft | 26 kts | 167° |
| 2026-04-25 01:49 | -33.96786 | 151.19064 | 30 ft | 27 kts | 181° |
| 2026-04-25 01:49 | -33.96968 | 151.19102 | 30 ft | 25 kts | 168° |
| 2026-04-25 01:49 | -33.97079 | 151.19133 | 30 ft | 12 kts | 156° |
| 2026-04-25 01:50 | -33.97121 | 151.19206 | 30 ft | 11 kts | 93° |
| 2026-04-25 01:50 | -33.97101 | 151.19316 | 26 ft | 18 kts | 63° |
| 2026-04-25 01:50 | -33.96914 | 151.19334 | 24 ft | 55 kts | 349° |
| 2026-04-25 01:50 | -33.96297 | 151.19173 | 26 ft | 123 kts | 348° |
| 2026-04-25 01:51 | -33.95294 | 151.18912 | 158 ft | 160 kts | 347° |
| 2026-04-25 01:51 | -33.94230 | 151.18720 | 896 ft | 156 kts | 3° |
| 2026-04-25 01:51 | -33.93208 | 151.19197 | 1510 ft | 165 kts | 43° |
| 2026-04-25 01:51 | -33.92662 | 151.20446 | 2009 ft | 180 kts | 80° |
| 2026-04-25 01:52 | -33.92938 | 151.21942 | 2523 ft | 190 kts | 116° |
| 2026-04-25 01:52 | -33.93584 | 151.23331 | 3094 ft | 190 kts | 117° |
| 2026-04-25 01:52 | -33.94034 | 151.24816 | 3630 ft | 191 kts | 89° |
| 2026-04-25 01:52 | -33.93941 | 151.26405 | 4208 ft | 196 kts | 83° |
| 2026-04-25 01:53 | -33.93831 | 151.28134 | 4367 ft | 220 kts | 85° |
| 2026-04-25 01:53 | -33.93740 | 151.30098 | 4478 ft | 250 kts | 86° |
| 2026-04-25 01:53 | -33.93655 | 151.32266 | 4974 ft | 264 kts | 86° |
| 2026-04-25 01:53 | -33.93578 | 151.34491 | 5721 ft | 268 kts | 87° |
| 2026-04-25 01:54 | -33.93506 | 151.36749 | 6479 ft | 272 kts | 87° |
| 2026-04-25 01:54 | -33.93491 | 151.39045 | 7183 ft | 277 kts | 97° |
| 2026-04-25 01:54 | -33.94101 | 151.41271 | 7887 ft | 280 kts | 122° |
| 2026-04-25 01:54 | -33.95401 | 151.42965 | 8607 ft | 282 kts | 146° |
| 2026-04-25 01:55 | -33.97212 | 151.43852 | 9331 ft | 285 kts | 172° |
| 2026-04-25 01:55 | -33.99211 | 151.43701 | 10058 ft | 289 kts | 197° |
| 2026-04-25 01:55 | -34.00970 | 151.42525 | 10716 ft | 295 kts | 220° |
| 2026-04-25 01:55 | -34.02540 | 151.40790 | 10913 ft | 318 kts | 223° |
| 2026-04-25 01:56 | -34.04196 | 151.38887 | 11133 ft | 337 kts | 223° |
| 2026-04-25 01:56 | -34.05902 | 151.36896 | 11670 ft | 345 kts | 223° |
| 2026-04-25 01:56 | -34.07634 | 151.34874 | 12314 ft | 348 kts | 223° |
| 2026-04-25 01:56 | -34.09385 | 151.32836 | 12981 ft | 352 kts | 223° |
| 2026-04-25 01:57 | -34.12957 | 151.28713 | 14284 ft | 359 kts | 223° |
| 2026-04-25 01:57 | -34.14776 | 151.26623 | 14865 ft | 362 kts | 223° |
| 2026-04-25 01:57 | -34.16610 | 151.24518 | 15456 ft | 365 kts | 223° |
| 2026-04-25 01:58 | -34.18458 | 151.22399 | 16053 ft | 369 kts | 222° |
| 2026-04-25 01:58 | -34.20326 | 151.20253 | 16651 ft | 372 kts | 222° |
| 2026-04-25 01:58 | -34.22210 | 151.18086 | 17246 ft | 375 kts | 223° |
| 2026-04-25 01:58 | -34.24104 | 151.15898 | 17829 ft | 379 kts | 222° |
| 2026-04-25 01:59 | -34.26014 | 151.13692 | 18425 ft | 382 kts | 222° |
| 2026-04-25 01:59 | -34.27945 | 151.11460 | 18956 ft | 385 kts | 222° |
| 2026-04-25 01:59 | -34.29889 | 151.09210 | 19464 ft | 388 kts | 222° |
| 2026-04-25 01:59 | -34.31844 | 151.06942 | 19987 ft | 391 kts | 222° |
| 2026-04-25 02:00 | -34.33810 | 151.04662 | 20509 ft | 393 kts | 222° |
| 2026-04-25 02:00 | -34.35789 | 151.02370 | 21043 ft | 396 kts | 222° |
| 2026-04-25 02:00 | -34.37781 | 151.00058 | 21573 ft | 399 kts | 222° |
| 2026-04-25 02:00 | -34.39791 | 150.97725 | 22077 ft | 401 kts | 222° |
| 2026-04-25 02:01 | -34.41812 | 150.95381 | 22615 ft | 404 kts | 222° |
| 2026-04-25 02:01 | -34.43847 | 150.93021 | 23122 ft | 407 kts | 222° |
| 2026-04-25 02:01 | -34.45897 | 150.90643 | 23621 ft | 409 kts | 221° |
| 2026-04-25 02:01 | -34.47960 | 150.88247 | 24083 ft | 412 kts | 221° |
| 2026-04-25 02:02 | -34.50032 | 150.85835 | 24479 ft | 414 kts | 222° |
| 2026-04-25 02:02 | -34.52141 | 150.83375 | 24882 ft | 416 kts | 222° |
| 2026-04-25 02:02 | -34.54232 | 150.80935 | 25278 ft | 418 kts | 222° |
| 2026-04-25 02:02 | -34.56234 | 150.78359 | 25664 ft | 422 kts | 230° |
| 2026-04-25 02:03 | -34.57987 | 150.75486 | 26052 ft | 425 kts | 232° |
| 2026-04-25 02:03 | -34.59734 | 150.72584 | 26442 ft | 427 kts | 232° |
| 2026-04-25 02:03 | -34.61491 | 150.69667 | 26838 ft | 429 kts | 231° |
| 2026-04-25 02:03 | -34.63256 | 150.66735 | 27211 ft | 431 kts | 231° |
| 2026-04-25 02:04 | -34.65030 | 150.63794 | 27602 ft | 433 kts | 231° |
| 2026-04-25 02:04 | -34.66810 | 150.60840 | 27971 ft | 435 kts | 231° |
| 2026-04-25 02:04 | -34.68600 | 150.57865 | 28343 ft | 437 kts | 231° |
| 2026-04-25 02:04 | -34.70396 | 150.54880 | 28708 ft | 439 kts | 231° |
| 2026-04-25 02:05 | -34.72197 | 150.51878 | 29070 ft | 441 kts | 232° |
| 2026-04-25 02:05 | -34.74006 | 150.48858 | 29425 ft | 443 kts | 232° |
| 2026-04-25 02:05 | -34.75822 | 150.45824 | 29750 ft | 445 kts | 232° |
| 2026-04-25 02:05 | -34.77645 | 150.42779 | 30097 ft | 446 kts | 232° |
| 2026-04-25 02:06 | -34.79475 | 150.39718 | 30432 ft | 448 kts | 232° |
| 2026-04-25 02:06 | -34.81312 | 150.36638 | 30735 ft | 450 kts | 232° |
| 2026-04-25 02:06 | -34.83152 | 150.33550 | 31022 ft | 452 kts | 232° |
| 2026-04-25 02:06 | -34.85003 | 150.30446 | 31328 ft | 453 kts | 232° |
| 2026-04-25 02:07 | -34.86857 | 150.27339 | 31654 ft | 454 kts | 232° |
| 2026-04-25 02:07 | -34.88706 | 150.24239 | 32085 ft | 452 kts | 232° |
| 2026-04-25 02:07 | -34.90548 | 150.21148 | 32514 ft | 449 kts | 232° |
| 2026-04-25 02:07 | -34.92379 | 150.18071 | 32935 ft | 447 kts | 232° |
| 2026-04-25 02:08 | -34.94199 | 150.15006 | 33353 ft | 446 kts | 232° |
| 2026-04-25 02:08 | -34.96011 | 150.11947 | 33746 ft | 444 kts | 232° |
| 2026-04-25 02:08 | -34.97814 | 150.08902 | 34164 ft | 442 kts | 232° |
| 2026-04-25 02:08 | -34.99615 | 150.05866 | 34382 ft | 442 kts | 232° |
| 2026-04-25 02:09 | -35.01430 | 150.02806 | 34422 ft | 448 kts | 232° |
| 2026-04-25 02:09 | -35.05119 | 149.96576 | 34417 ft | 456 kts | 232° |
| 2026-04-25 02:10 | -35.08822 | 149.90284 | 34418 ft | 457 kts | 232° |
| 2026-04-25 02:10 | -35.12556 | 149.83944 | 34416 ft | 457 kts | 232° |
| 2026-04-25 02:11 | -35.16263 | 149.77641 | 34416 ft | 457 kts | 232° |
| 2026-04-25 02:11 | -35.19967 | 149.71330 | 34422 ft | 457 kts | 233° |
| 2026-04-25 02:12 | -35.23675 | 149.65011 | 34428 ft | 457 kts | 233° |
| 2026-04-25 02:12 | -35.27373 | 149.58673 | 34434 ft | 458 kts | 233° |
| 2026-04-25 02:13 | -35.31068 | 149.52320 | 34446 ft | 458 kts | 233° |
| 2026-04-25 02:13 | -35.34771 | 149.45963 | 34454 ft | 458 kts | 233° |
| 2026-04-25 02:14 | -35.38478 | 149.39602 | 34462 ft | 459 kts | 233° |
| 2026-04-25 02:14 | -35.42183 | 149.33233 | 34465 ft | 459 kts | 233° |
| 2026-04-25 02:15 | -35.45879 | 149.26850 | 34468 ft | 459 kts | 233° |
| 2026-04-25 02:15 | -35.49576 | 149.20459 | 34463 ft | 459 kts | 233° |
| 2026-04-25 02:16 | -35.53272 | 149.14052 | 34457 ft | 460 kts | 234° |
| 2026-04-25 02:16 | -35.56961 | 149.07640 | 34444 ft | 460 kts | 234° |
| 2026-04-25 02:17 | -35.60653 | 149.01215 | 34434 ft | 460 kts | 234° |
| 2026-04-25 02:17 | -35.64347 | 148.94792 | 34432 ft | 460 kts | 234° |
| 2026-04-25 02:18 | -35.68061 | 148.88319 | 34436 ft | 460 kts | 234° |
| 2026-04-25 02:18 | -35.71743 | 148.81876 | 34432 ft | 460 kts | 234° |
| 2026-04-25 02:19 | -35.75422 | 148.75432 | 34437 ft | 460 kts | 234° |
| 2026-04-25 02:19 | -35.79101 | 148.68982 | 34440 ft | 460 kts | 234° |
| 2026-04-25 02:20 | -35.82777 | 148.62526 | 34445 ft | 460 kts | 234° |
| 2026-04-25 02:20 | -35.86440 | 148.56062 | 34439 ft | 460 kts | 234° |
| 2026-04-25 02:21 | -35.89484 | 148.50690 | 34442 ft | 460 kts | 234° |
| 2026-04-25 02:21 | -35.93134 | 148.44216 | 34446 ft | 460 kts | 234° |
| 2026-04-25 02:22 | -35.96773 | 148.37731 | 34450 ft | 459 kts | 234° |
| 2026-04-25 02:22 | -36.00433 | 148.31210 | 34447 ft | 459 kts | 234° |
| 2026-04-25 02:23 | -36.04070 | 148.24732 | 34448 ft | 459 kts | 234° |
| 2026-04-25 02:23 | -36.07698 | 148.18240 | 34445 ft | 459 kts | 234° |
| 2026-04-25 02:24 | -36.11318 | 148.11748 | 34453 ft | 458 kts | 234° |
| 2026-04-25 02:24 | -36.14942 | 148.05259 | 34451 ft | 458 kts | 234° |
| 2026-04-25 02:25 | -36.18573 | 147.98773 | 34442 ft | 458 kts | 234° |
| 2026-04-25 02:25 | -36.22197 | 147.92283 | 34448 ft | 458 kts | 234° |
| 2026-04-25 02:26 | -36.25815 | 147.85787 | 34450 ft | 458 kts | 234° |
| 2026-04-25 02:26 | -36.29434 | 147.79283 | 34451 ft | 458 kts | 235° |
| 2026-04-25 02:27 | -36.33034 | 147.72768 | 34445 ft | 458 kts | 235° |
| 2026-04-25 02:27 | -36.36634 | 147.66247 | 34440 ft | 458 kts | 235° |
| 2026-04-25 02:28 | -36.40231 | 147.59723 | 34442 ft | 458 kts | 235° |
| 2026-04-25 02:28 | -36.43822 | 147.53188 | 34440 ft | 458 kts | 235° |
| 2026-04-25 02:29 | -36.47412 | 147.46652 | 34440 ft | 458 kts | 235° |
| 2026-04-25 02:29 | -36.50998 | 147.40107 | 34441 ft | 458 kts | 235° |
| 2026-04-25 02:30 | -36.54599 | 147.33508 | 34439 ft | 458 kts | 236° |
| 2026-04-25 02:30 | -36.58159 | 147.26992 | 34438 ft | 458 kts | 235° |
| 2026-04-25 02:31 | -36.61767 | 147.20386 | 34435 ft | 458 kts | 236° |
| 2026-04-25 02:31 | -36.65336 | 147.13813 | 34440 ft | 458 kts | 236° |
| 2026-04-25 02:31 | -36.67121 | 147.10517 | 34116 ft | 458 kts | 236° |
| 2026-04-25 02:32 | -36.68900 | 147.07232 | 33848 ft | 457 kts | 236° |
| 2026-04-25 02:32 | -36.70682 | 147.03944 | 33586 ft | 458 kts | 236° |
| 2026-04-25 02:32 | -36.72469 | 147.00648 | 33318 ft | 459 kts | 236° |
| 2026-04-25 02:32 | -36.74257 | 146.97347 | 33062 ft | 460 kts | 236° |
| 2026-04-25 02:33 | -36.76049 | 146.94035 | 32804 ft | 461 kts | 236° |
| 2026-04-25 02:33 | -36.77840 | 146.90720 | 32549 ft | 462 kts | 236° |
| 2026-04-25 02:33 | -36.79632 | 146.87394 | 32300 ft | 462 kts | 236° |
| 2026-04-25 02:33 | -36.81425 | 146.84062 | 32059 ft | 463 kts | 237° |
| 2026-04-25 02:34 | -36.83221 | 146.80720 | 31800 ft | 464 kts | 237° |
| 2026-04-25 02:34 | -36.85017 | 146.77374 | 31548 ft | 464 kts | 237° |
| 2026-04-25 02:34 | -36.86818 | 146.74022 | 31311 ft | 465 kts | 237° |
| 2026-04-25 02:34 | -36.88621 | 146.70667 | 31063 ft | 466 kts | 237° |
| 2026-04-25 02:35 | -36.90425 | 146.67305 | 30819 ft | 466 kts | 237° |
| 2026-04-25 02:35 | -36.92231 | 146.63932 | 30440 ft | 467 kts | 237° |
| 2026-04-25 02:35 | -36.94038 | 146.60557 | 29850 ft | 468 kts | 237° |
| 2026-04-25 02:35 | -36.95848 | 146.57164 | 29331 ft | 469 kts | 237° |
| 2026-04-25 02:36 | -36.97660 | 146.53760 | 28822 ft | 471 kts | 237° |
| 2026-04-25 02:36 | -36.99473 | 146.50350 | 28299 ft | 472 kts | 237° |
| 2026-04-25 02:36 | -37.01292 | 146.46928 | 27806 ft | 473 kts | 237° |
| 2026-04-25 02:36 | -37.03110 | 146.43510 | 27306 ft | 470 kts | 238° |
| 2026-04-25 02:37 | -37.04918 | 146.40116 | 26807 ft | 468 kts | 238° |
| 2026-04-25 02:37 | -37.06714 | 146.36739 | 26317 ft | 465 kts | 238° |
| 2026-04-25 02:37 | -37.08498 | 146.33380 | 25811 ft | 462 kts | 238° |
| 2026-04-25 02:37 | -37.10267 | 146.30039 | 25301 ft | 458 kts | 238° |
| 2026-04-25 02:38 | -37.12043 | 146.26683 | 24783 ft | 455 kts | 238° |
| 2026-04-25 02:38 | -37.13789 | 146.23386 | 24258 ft | 452 kts | 238° |
| 2026-04-25 02:38 | -37.15517 | 146.20117 | 23687 ft | 448 kts | 238° |
| 2026-04-25 02:38 | -37.17232 | 146.16870 | 23142 ft | 445 kts | 238° |
| 2026-04-25 02:39 | -37.18934 | 146.13644 | 22620 ft | 442 kts | 238° |
| 2026-04-25 02:39 | -37.20620 | 146.10446 | 22089 ft | 438 kts | 238° |
| 2026-04-25 02:39 | -37.22293 | 146.07271 | 21560 ft | 434 kts | 238° |
| 2026-04-25 02:39 | -37.23951 | 146.04119 | 21034 ft | 431 kts | 238° |
| 2026-04-25 02:40 | -37.25592 | 146.00992 | 20512 ft | 427 kts | 238° |
| 2026-04-25 02:40 | -37.27218 | 145.97888 | 19994 ft | 424 kts | 238° |
| 2026-04-25 02:40 | -37.28832 | 145.94803 | 19476 ft | 421 kts | 238° |
| 2026-04-25 02:40 | -37.30436 | 145.91741 | 18966 ft | 418 kts | 238° |
| 2026-04-25 02:41 | -37.32029 | 145.88703 | 18431 ft | 415 kts | 238° |
| 2026-04-25 02:41 | -37.33611 | 145.85688 | 17904 ft | 412 kts | 238° |
| 2026-04-25 02:41 | -37.35185 | 145.82693 | 17415 ft | 409 kts | 238° |
| 2026-04-25 02:41 | -37.36748 | 145.79717 | 16915 ft | 406 kts | 238° |
| 2026-04-25 02:42 | -37.38300 | 145.76763 | 16422 ft | 404 kts | 238° |
| 2026-04-25 02:42 | -37.39844 | 145.73821 | 15931 ft | 402 kts | 238° |
| 2026-04-25 02:42 | -37.41379 | 145.70892 | 15441 ft | 400 kts | 238° |
| 2026-04-25 02:42 | -37.42902 | 145.67976 | 14951 ft | 397 kts | 239° |
| 2026-04-25 02:43 | -37.44411 | 145.65080 | 14465 ft | 395 kts | 239° |
| 2026-04-25 02:43 | -37.45916 | 145.62190 | 13990 ft | 392 kts | 239° |
| 2026-04-25 02:43 | -37.47385 | 145.59390 | 13837 ft | 376 kts | 239° |
| 2026-04-25 02:43 | -37.48799 | 145.56707 | 13698 ft | 360 kts | 239° |
| 2026-04-25 02:44 | -37.50159 | 145.54122 | 13385 ft | 350 kts | 240° |
| 2026-04-25 02:44 | -37.51488 | 145.51587 | 12835 ft | 342 kts | 240° |
| 2026-04-25 02:44 | -37.52757 | 145.49167 | 12668 ft | 320 kts | 240° |
| 2026-04-25 02:44 | -37.53948 | 145.46896 | 12514 ft | 303 kts | 240° |
| 2026-04-25 02:45 | -37.55089 | 145.44716 | 12109 ft | 294 kts | 241° |
| 2026-04-25 02:45 | -37.56205 | 145.42573 | 11601 ft | 290 kts | 241° |
| 2026-04-25 02:45 | -37.57305 | 145.40457 | 11101 ft | 287 kts | 241° |
| 2026-04-25 02:45 | -37.58395 | 145.38362 | 10617 ft | 284 kts | 240° |
| 2026-04-25 02:46 | -37.59485 | 145.36266 | 10112 ft | 280 kts | 241° |
| 2026-04-25 02:46 | -37.60538 | 145.34246 | 9550 ft | 279 kts | 241° |
| 2026-04-25 02:46 | -37.61613 | 145.32183 | 9004 ft | 277 kts | 241° |
| 2026-04-25 02:46 | -37.62642 | 145.30213 | 8842 ft | 261 kts | 242° |
| 2026-04-25 02:47 | -37.63628 | 145.28323 | 8511 ft | 255 kts | 242° |
| 2026-04-25 02:47 | -37.64596 | 145.26465 | 8144 ft | 251 kts | 242° |
| 2026-04-25 02:47 | -37.65548 | 145.24637 | 7622 ft | 249 kts | 242° |
| 2026-04-25 02:47 | -37.66493 | 145.22818 | 7386 ft | 248 kts | 242° |
| 2026-04-25 02:48 | -37.67445 | 145.20982 | 7299 ft | 252 kts | 242° |
| 2026-04-25 02:48 | -37.68407 | 145.19117 | 6798 ft | 256 kts | 242° |
| 2026-04-25 02:48 | -37.69358 | 145.17285 | 6569 ft | 241 kts | 242° |
| 2026-04-25 02:48 | -37.70241 | 145.15604 | 6436 ft | 224 kts | 243° |
| 2026-04-25 02:49 | -37.71065 | 145.14034 | 6305 ft | 204 kts | 243° |
| 2026-04-25 02:49 | -37.71813 | 145.12597 | 6044 ft | 189 kts | 245° |
| 2026-04-25 02:49 | -37.72346 | 145.11107 | 5555 ft | 184 kts | 260° |
| 2026-04-25 02:49 | -37.72582 | 145.09555 | 5067 ft | 178 kts | 272° |
| 2026-04-25 02:50 | -37.72622 | 145.08000 | 4623 ft | 177 kts | 275° |
| 2026-04-25 02:50 | -37.72663 | 145.06433 | 4405 ft | 180 kts | 275° |
| 2026-04-25 02:50 | -37.72707 | 145.04854 | 4277 ft | 180 kts | 275° |
| 2026-04-25 02:50 | -37.72752 | 145.03288 | 4184 ft | 177 kts | 275° |
| 2026-04-25 02:51 | -37.72796 | 145.01728 | 4095 ft | 178 kts | 275° |
| 2026-04-25 02:51 | -37.72838 | 145.00158 | 3731 ft | 178 kts | 275° |
| 2026-04-25 02:51 | -37.72883 | 144.98623 | 3253 ft | 172 kts | 275° |
| 2026-04-25 02:51 | -37.72926 | 144.97160 | 2997 ft | 158 kts | 275° |
| 2026-04-25 02:52 | -37.72968 | 144.95792 | 2877 ft | 152 kts | 276° |
| 2026-04-25 02:52 | -37.73008 | 144.94479 | 2728 ft | 148 kts | 278° |
| 2026-04-25 02:52 | -37.73043 | 144.93186 | 2626 ft | 147 kts | 278° |
| 2026-04-25 02:52 | -37.73078 | 144.91896 | 2545 ft | 147 kts | 278° |
| 2026-04-25 02:53 | -37.73111 | 144.90601 | 2409 ft | 149 kts | 277° |
| 2026-04-25 02:53 | -37.73143 | 144.89295 | 2142 ft | 149 kts | 277° |
| 2026-04-25 02:53 | -37.73176 | 144.87984 | 1902 ft | 149 kts | 275° |
| 2026-04-25 02:53 | -37.73191 | 144.87098 | 1716 ft | 150 kts | 277° |
| 2026-04-25 02:54 | -37.73059 | 144.85826 | 1510 ft | 143 kts | 295° |
| 2026-04-25 02:54 | -37.72526 | 144.84842 | 1275 ft | 135 kts | 336° |
| 2026-04-25 02:54 | -37.71643 | 144.84590 | 1011 ft | 130 kts | 359° |
| 2026-04-25 02:54 | -37.70733 | 144.84484 | 816 ft | 134 kts | 356° |
| 2026-04-25 02:55 | -37.69815 | 144.84309 | 637 ft | 132 kts | 356° |
| 2026-04-25 02:55 | -37.68894 | 144.84150 | 472 ft | 136 kts | 356° |
| 2026-04-25 02:55 | -37.67987 | 144.83986 | 360 ft | 121 kts | 355° |
| 2026-04-25 02:55 | -37.67292 | 144.83866 | 375 ft | 77 kts | 351° |
| 2026-04-25 02:56 | -37.66950 | 144.83856 | 388 ft | 15 kts | 19° |
| 2026-04-25 02:56 | -37.66870 | 144.83895 | 390 ft | 3 kts | 22° |
| 2026-04-25 02:56 | -37.66867 | 144.83897 | 390 ft | 0 kts | 22° |
| 2026-04-25 02:56 | -37.66855 | 144.83903 | 391 ft | 6 kts | 23° |
| 2026-04-25 02:57 | -37.66810 | 144.83953 | 392 ft | 9 kts | 86° |
| 2026-04-25 02:57 | -37.66871 | 144.83999 | 389 ft | 13 kts | 167° |
| 2026-04-25 02:57 | -37.66974 | 144.84019 | 386 ft | 17 kts | 171° |
| 2026-04-25 02:57 | -37.67076 | 144.84081 | 383 ft | 18 kts | 113° |
| 2026-04-25 02:58 | -37.67068 | 144.84232 | 384 ft | 17 kts | 81° |
| 2026-04-25 02:58 | -37.67050 | 144.84372 | 387 ft | 14 kts | 81° |
| 2026-04-25 02:58 | -37.67021 | 144.84484 | 389 ft | 13 kts | 75° |
| 2026-04-25 02:58 | -37.67041 | 144.84561 | 390 ft | 8 kts | 151° |
| 2026-04-25 02:59 | -37.67068 | 144.84572 | 389 ft | 4 kts | 167° |
| 2026-04-25 02:59 | -37.67076 | 144.84573 | 389 ft | 0 kts | 169° |